createdAt,value
2018-06-19T00:01:40.008Z,71.16
2018-06-19T00:04:07.674Z,70.60
2018-06-19T00:06:35.393Z,70.50
2018-06-19T00:09:03.854Z,70.61
2018-06-19T00:11:31.551Z,71.02
2018-06-19T00:13:59.237Z,70.95
2018-06-19T00:16:26.938Z,71.43
2018-06-19T00:18:55.718Z,70.97
2018-06-19T00:21:26.531Z,70.89
2018-06-19T00:23:54.227Z,71.35
2018-06-19T00:26:21.931Z,71.09
2018-06-19T00:28:49.633Z,71.27
2018-06-19T00:31:17.341Z,70.69
2018-06-19T00:33:44.994Z,71.02
2018-06-19T00:36:12.681Z,70.78
2018-06-19T00:38:40.355Z,70.51
2018-06-19T00:41:08.002Z,69.78
2018-06-19T00:43:35.667Z,70.35
2018-06-19T00:46:03.486Z,70.82
2018-06-19T00:48:31.211Z,70.90
2018-06-19T00:50:58.959Z,70.76
2018-06-19T00:53:26.750Z,71.07
2018-06-19T00:55:58.927Z,71.52
2018-06-19T00:58:26.550Z,71.34
2018-06-19T01:00:54.219Z,71.63
2018-06-19T01:03:21.905Z,70.96
2018-06-19T01:05:49.573Z,71.09
2018-06-19T01:08:17.291Z,71.11
2018-06-19T01:10:44.975Z,70.68
2018-06-19T01:13:12.686Z,70.79
2018-06-19T01:15:40.387Z,70.91
2018-06-19T01:18:08.082Z,70.84
2018-06-19T01:20:35.757Z,71.04
2018-06-19T01:23:03.456Z,71.43
2018-06-19T01:25:31.127Z,71.61
2018-06-19T01:27:58.796Z,71.29
2018-06-19T01:30:26.460Z,71.28
2018-06-19T01:32:54.150Z,71.12
2018-06-19T01:35:21.851Z,71.23
2018-06-19T01:37:49.539Z,71.41
2018-06-19T01:40:17.218Z,71.65
2018-06-19T01:42:44.902Z,71.82
2018-06-19T01:45:12.560Z,72.08
2018-06-19T01:47:40.238Z,72.03
2018-06-19T01:50:07.909Z,71.84
2018-06-19T01:52:35.600Z,71.75
2018-06-19T01:55:03.247Z,71.60
2018-06-19T01:57:30.944Z,72.25
2018-06-19T01:59:58.611Z,72.07
2018-06-19T02:02:26.283Z,71.53
2018-06-19T02:04:53.929Z,70.96
2018-06-19T02:07:21.641Z,71.77
2018-06-19T02:09:49.314Z,72.64
2018-06-19T02:12:17.013Z,72.29
2018-06-19T02:14:44.723Z,72.34
2018-06-19T02:17:12.432Z,72.86
2018-06-19T02:19:40.115Z,73.17
2018-06-19T02:22:07.765Z,73.06
2018-06-19T02:24:35.465Z,72.97
2018-06-19T02:27:03.113Z,72.89
2018-06-19T02:29:30.794Z,72.12
2018-06-19T02:31:58.475Z,72.60
2018-06-19T02:34:26.181Z,72.92
2018-06-19T02:36:53.847Z,72.89
2018-06-19T02:39:21.638Z,72.86
2018-06-19T02:41:49.298Z,72.49
2018-06-19T02:44:16.982Z,73.17
2018-06-19T02:46:44.714Z,72.88
2018-06-19T02:49:12.370Z,72.82
2018-06-19T02:51:40.076Z,73.25
2018-06-19T02:54:07.762Z,72.51
2018-06-19T02:56:35.441Z,72.85
2018-06-19T02:59:03.171Z,71.82
2018-06-19T03:01:30.863Z,72.46
2018-06-19T03:03:58.522Z,72.99
2018-06-19T03:06:26.222Z,73.65
2018-06-19T03:08:53.881Z,73.97
2018-06-19T03:11:21.558Z,74.57
2018-06-19T03:13:49.202Z,73.86
2018-06-19T03:16:17.090Z,73.35
2018-06-19T03:18:44.769Z,74.09
2018-06-19T03:21:12.731Z,73.76
2018-06-19T03:23:40.465Z,73.72
2018-06-19T03:26:08.380Z,73.98
2018-06-19T03:28:36.047Z,74.22
2018-06-19T03:31:03.728Z,73.81
2018-06-19T03:33:31.432Z,74.07
2018-06-19T03:35:59.219Z,74.11
2018-06-19T03:38:26.874Z,73.54
2018-06-19T03:40:54.526Z,73.84
2018-06-19T03:43:22.202Z,73.99
2018-06-19T03:45:49.868Z,73.15
2018-06-19T03:48:17.510Z,74.07
2018-06-19T03:50:45.185Z,73.87
2018-06-19T03:53:12.867Z,74.06
2018-06-19T03:55:40.527Z,73.70
2018-06-19T03:58:08.227Z,74.04
2018-06-19T04:00:35.921Z,73.88
2018-06-19T04:03:03.622Z,73.67
2018-06-19T04:05:31.316Z,73.40
2018-06-19T04:07:58.990Z,73.41
2018-06-19T04:10:26.693Z,73.98
2018-06-19T04:12:54.374Z,74.19
2018-06-19T04:15:22.067Z,74.17
2018-06-19T04:17:49.744Z,74.21
2018-06-19T04:20:17.419Z,73.84
2018-06-19T04:22:45.091Z,73.64
2018-06-19T04:25:12.823Z,73.59
2018-06-19T04:27:40.530Z,73.83
2018-06-19T04:30:08.180Z,73.78
2018-06-19T04:32:36.002Z,73.79
2018-06-19T04:35:03.662Z,73.66
2018-06-19T04:37:31.346Z,73.66
2018-06-19T04:39:59.049Z,73.13
2018-06-19T04:42:26.745Z,73.10
2018-06-19T04:44:54.433Z,72.90
2018-06-19T04:47:22.110Z,72.93
2018-06-19T04:49:49.853Z,73.02
2018-06-19T04:52:17.516Z,72.51
2018-06-19T04:54:45.178Z,72.09
2018-06-19T04:57:12.891Z,70.65
2018-06-19T04:59:40.630Z,70.56
2018-06-19T05:02:08.366Z,70.02
2018-06-19T05:04:36.112Z,68.69
2018-06-19T05:07:03.822Z,67.86
2018-06-19T05:09:31.538Z,68.13
2018-06-19T05:11:59.222Z,67.77
2018-06-19T05:14:27.146Z,67.92
2018-06-19T05:16:54.809Z,68.51
2018-06-19T05:19:22.475Z,67.77
2018-06-19T05:21:50.161Z,66.67
2018-06-19T05:24:17.876Z,65.86
2018-06-19T05:26:45.582Z,65.51
2018-06-19T05:29:13.277Z,64.47
2018-06-19T05:31:40.953Z,63.67
2018-06-19T05:34:08.635Z,62.71
2018-06-19T05:36:36.479Z,61.34
2018-06-19T05:39:07.658Z,61.04
2018-06-19T05:41:36.677Z,60.14
2018-06-19T05:44:04.847Z,59.53
2018-06-19T05:46:32.515Z,58.27
2018-06-19T05:49:00.183Z,57.87
2018-06-19T05:51:27.963Z,57.45
2018-06-19T05:53:55.851Z,55.93
2018-06-19T05:56:23.510Z,54.95
2018-06-19T05:58:51.192Z,54.56
2018-06-19T06:01:18.887Z,53.95
2018-06-19T06:03:46.547Z,54.67
2018-06-19T06:06:14.225Z,53.43
2018-06-19T06:08:41.907Z,53.01
2018-06-19T06:11:09.611Z,53.08
2018-06-19T06:13:37.285Z,51.83
2018-06-19T06:16:04.981Z,52.06
2018-06-19T06:18:32.633Z,52.53
2018-06-19T06:21:00.354Z,52.57
2018-06-19T06:23:28.038Z,52.55
2018-06-19T06:25:55.953Z,52.08
2018-06-19T06:28:23.619Z,51.30
2018-06-19T06:30:51.321Z,51.42
2018-06-19T06:33:19.095Z,50.21
2018-06-19T06:35:46.781Z,50.67
2018-06-19T06:38:14.466Z,49.06
2018-06-19T06:40:42.142Z,49.14
2018-06-19T06:43:09.849Z,46.38
2018-06-19T06:45:37.538Z,45.44
2018-06-19T06:48:05.458Z,46.16
2018-06-19T06:50:33.212Z,47.43
2018-06-19T06:53:00.862Z,48.88
2018-06-19T06:55:28.567Z,49.14
2018-06-19T06:57:56.264Z,48.87
2018-06-19T07:00:23.942Z,48.17
2018-06-19T07:02:51.703Z,46.90
2018-06-19T07:05:19.375Z,47.14
2018-06-19T07:07:47.066Z,47.66
2018-06-19T07:10:14.805Z,45.77
2018-06-19T07:12:42.471Z,45.55
2018-06-19T07:15:10.429Z,45.75
2018-06-19T07:17:38.094Z,45.86
2018-06-19T07:20:05.836Z,43.50
2018-06-19T07:22:33.528Z,43.93
2018-06-19T07:25:01.207Z,41.42
2018-06-19T07:27:28.939Z,41.36
2018-06-19T07:29:56.634Z,39.64
2018-06-19T07:32:24.308Z,37.46
2018-06-19T07:34:51.977Z,37.21
2018-06-19T07:37:19.659Z,36.84
2018-06-19T07:39:47.366Z,36.16
2018-06-19T07:42:15.069Z,36.17
2018-06-19T07:44:42.773Z,33.90
2018-06-19T07:47:10.430Z,33.08
2018-06-19T07:49:38.145Z,30.86
2018-06-19T07:52:05.868Z,31.62
2018-06-19T07:54:33.565Z,30.20
2018-06-19T07:57:01.198Z,29.45
2018-06-19T07:59:28.974Z,29.55
2018-06-19T08:01:56.637Z,30.09
2018-06-19T08:04:24.331Z,29.48
2018-06-19T08:06:52.038Z,29.87
2018-06-19T08:09:19.726Z,28.06
2018-06-19T08:11:47.414Z,27.15
2018-06-19T08:14:15.095Z,26.72
2018-06-19T08:16:42.840Z,25.29
2018-06-19T08:19:10.526Z,28.09
2018-06-19T08:21:38.218Z,29.54
2018-06-19T08:24:05.951Z,30.67
2018-06-19T08:26:33.672Z,33.08
2018-06-19T08:29:01.433Z,33.72
2018-06-19T08:31:29.145Z,35.33
2018-06-19T08:33:56.814Z,36.05
2018-06-19T08:36:24.478Z,36.85
2018-06-19T08:38:52.202Z,36.88
2018-06-19T08:41:19.900Z,36.08
2018-06-19T08:43:47.611Z,35.58
2018-06-19T08:46:15.291Z,35.86
2018-06-19T08:48:44.007Z,36.04
2018-06-19T08:51:12.063Z,35.22
2018-06-19T08:53:39.722Z,35.41
2018-06-19T08:56:07.410Z,33.49
2018-06-19T08:58:35.134Z,32.04
2018-06-19T09:01:02.883Z,29.73
2018-06-19T09:03:30.567Z,27.99
2018-06-19T09:05:58.206Z,26.90
2018-06-19T09:08:25.918Z,25.61
2018-06-19T09:10:53.574Z,26.37
2018-06-19T09:13:21.322Z,24.20
2018-06-19T09:15:49.015Z,24.27
2018-06-19T09:18:16.699Z,23.29
2018-06-19T09:20:44.361Z,22.00
2018-06-19T09:23:12.032Z,23.60
2018-06-19T09:25:39.778Z,23.68
2018-06-19T09:28:07.497Z,24.76
2018-06-19T09:30:35.182Z,23.34
2018-06-19T09:33:02.828Z,23.06
2018-06-19T09:35:30.551Z,22.23
2018-06-19T09:37:58.269Z,21.93
2018-06-19T09:40:25.950Z,22.01
2018-06-19T09:42:53.631Z,21.05
2018-06-19T09:45:21.244Z,20.23
2018-06-19T09:47:48.914Z,19.48
2018-06-19T09:50:16.607Z,19.02
2018-06-19T09:52:44.359Z,19.05
2018-06-19T09:55:12.110Z,18.60
2018-06-19T09:57:39.882Z,19.40
2018-06-19T10:00:07.618Z,21.13
2018-06-19T10:02:35.320Z,22.51
2018-06-19T10:05:03.111Z,22.11
2018-06-19T10:07:30.769Z,22.90
2018-06-19T10:09:58.592Z,24.20
2018-06-19T10:12:26.306Z,24.62
2018-06-19T10:14:54.007Z,22.99
2018-06-19T10:17:21.719Z,21.93
2018-06-19T10:19:49.490Z,21.81
2018-06-19T10:22:17.213Z,22.40
2018-06-19T10:24:44.888Z,21.76
2018-06-19T10:27:12.658Z,21.24
2018-06-19T10:29:40.372Z,21.68
2018-06-19T10:32:08.101Z,20.79
2018-06-19T10:34:35.999Z,22.39
2018-06-19T10:37:03.642Z,23.11
2018-06-19T10:39:31.387Z,25.21
2018-06-19T10:41:59.092Z,25.06
2018-06-19T10:44:26.799Z,24.38
2018-06-19T10:46:54.448Z,24.93
2018-06-19T10:49:22.166Z,24.01
2018-06-19T10:51:49.827Z,23.77
2018-06-19T10:54:17.523Z,23.97
2018-06-19T10:56:45.151Z,22.83
2018-06-19T10:59:12.808Z,21.39
2018-06-19T11:01:40.426Z,21.20
2018-06-19T11:04:08.067Z,22.62
2018-06-19T11:06:35.703Z,22.94
2018-06-19T11:09:05.353Z,24.21
2018-06-19T11:11:32.993Z,24.55
2018-06-19T11:14:00.638Z,25.22
2018-06-19T11:16:28.295Z,24.71
2018-06-19T11:18:55.933Z,25.75
2018-06-19T11:21:23.649Z,24.72
2018-06-19T11:23:51.323Z,25.33
2018-06-19T11:26:19.862Z,25.86
2018-06-19T11:28:47.534Z,25.29
2018-06-19T11:31:15.266Z,25.92
2018-06-19T11:33:42.899Z,24.94
2018-06-19T11:36:10.723Z,25.64
2018-06-19T11:38:38.417Z,25.66
2018-06-19T11:41:06.038Z,25.43
2018-06-19T11:43:33.775Z,27.51
2018-06-19T11:46:01.423Z,27.39
2018-06-19T11:48:29.170Z,26.08
2018-06-19T11:50:56.806Z,26.60
2018-06-19T11:53:24.639Z,27.41
2018-06-19T11:55:52.481Z,27.89
2018-06-19T11:58:20.092Z,26.95
2018-06-19T12:00:47.761Z,27.48
2018-06-19T12:03:15.423Z,27.59
2018-06-19T12:05:43.099Z,28.70
2018-06-19T12:08:10.766Z,27.24
2018-06-19T12:10:38.497Z,27.64
2018-06-19T12:13:06.183Z,27.17
2018-06-19T12:15:33.754Z,27.74
2018-06-19T12:18:01.400Z,26.78
2018-06-19T12:20:29.077Z,28.81
2018-06-19T12:22:56.706Z,28.86
2018-06-19T12:25:24.395Z,29.88
2018-06-19T12:27:52.068Z,31.17
2018-06-19T12:30:19.694Z,29.89
2018-06-19T12:32:47.426Z,29.69
2018-06-19T12:35:15.035Z,29.68
2018-06-19T12:37:42.679Z,33.12
2018-06-19T12:40:10.335Z,33.47
2018-06-19T12:42:37.974Z,32.29
2018-06-19T12:45:05.671Z,32.69
2018-06-19T12:47:33.333Z,31.71
2018-06-19T12:50:34.163Z,32.81
2018-06-19T12:53:07.530Z,31.75
2018-06-19T12:55:40.684Z,31.75
2018-06-19T12:58:08.365Z,31.92
2018-06-19T13:00:35.987Z,32.21
2018-06-19T13:03:09.240Z,33.43
2018-06-19T13:05:42.367Z,33.36
2018-06-19T13:08:10.198Z,33.55
2018-06-19T13:10:37.834Z,34.09
2018-06-19T13:13:22.120Z,32.89
2018-06-19T13:15:50.993Z,32.88
2018-06-19T13:18:24.356Z,31.26
2018-06-19T13:20:52.008Z,31.62
2018-06-19T13:23:19.655Z,32.84
2018-06-19T13:25:47.326Z,33.63
2018-06-19T13:28:14.957Z,34.03
2018-06-19T13:30:48.151Z,35.02
2018-06-19T13:33:15.810Z,34.58
2018-06-19T13:35:43.443Z,35.50
2018-06-19T13:38:11.118Z,34.38
2018-06-19T13:40:53.186Z,35.60
2018-06-19T13:43:26.569Z,35.65
2018-06-19T13:45:54.227Z,35.25
2018-06-19T13:48:21.877Z,34.88
2018-06-19T13:50:49.530Z,34.06
2018-06-19T13:53:17.167Z,34.26
2018-06-19T13:57:53.470Z,35.09
2018-06-19T14:00:21.907Z,35.63
2018-06-19T14:02:49.861Z,35.16
2018-06-19T14:05:18.578Z,36.31
2018-06-19T14:08:50.466Z,36.07
2018-06-19T14:11:23.570Z,36.01
2018-06-19T14:13:51.216Z,35.70
2018-06-19T14:16:18.860Z,35.30
2018-06-19T14:18:46.506Z,34.29
2018-06-19T14:21:14.201Z,34.71
2018-06-19T14:23:41.838Z,34.69
2018-06-19T14:26:09.575Z,36.08
2018-06-19T14:28:37.219Z,35.76
2018-06-19T14:31:04.916Z,36.37
2018-06-19T14:33:33.508Z,36.58
2018-06-19T14:36:01.315Z,36.64
2018-06-19T14:38:28.938Z,36.25
2018-06-19T14:40:56.613Z,34.70
2018-06-19T14:43:24.302Z,36.28
2018-06-19T14:45:51.962Z,35.77
2018-06-19T14:48:19.588Z,35.81
2018-06-19T14:50:47.266Z,36.07
2018-06-19T14:53:14.900Z,35.94
2018-06-19T14:55:42.806Z,34.96
2018-06-19T14:58:10.471Z,32.90
2018-06-19T15:00:38.110Z,33.66
2018-06-19T15:03:05.787Z,34.43
2018-06-19T15:05:33.445Z,34.59
2018-06-19T15:08:01.093Z,34.33
2018-06-19T15:10:28.852Z,35.56
2018-06-19T15:12:56.487Z,35.53
2018-06-19T15:15:24.171Z,37.19
2018-06-19T15:17:51.825Z,37.17
2018-06-19T15:20:19.584Z,36.32
2018-06-19T15:22:47.224Z,36.95
2018-06-19T15:25:14.868Z,36.75
2018-06-19T15:27:42.535Z,36.63
2018-06-19T15:30:10.183Z,35.96
2018-06-19T15:32:37.829Z,35.85
2018-06-19T15:35:05.498Z,36.49
2018-06-19T15:37:33.352Z,36.03
2018-06-19T15:40:01.007Z,35.66
2018-06-19T15:42:28.675Z,35.96
2018-06-19T15:44:56.333Z,35.85
2018-06-19T15:47:23.974Z,35.75
2018-06-19T15:49:51.710Z,35.88
2018-06-19T15:52:19.371Z,35.91
2018-06-19T15:54:47.015Z,34.99
2018-06-19T15:57:14.678Z,35.12
2018-06-19T15:59:42.660Z,34.08
2018-06-19T16:02:10.302Z,35.06
2018-06-19T16:04:37.950Z,34.92
2018-06-19T16:07:05.632Z,34.54
2018-06-19T16:09:33.326Z,35.57
2018-06-19T16:12:00.971Z,36.28
2018-06-19T16:14:28.647Z,36.75
2018-06-19T16:16:56.429Z,36.49
2018-06-19T16:19:24.044Z,37.35
2018-06-19T16:21:51.850Z,35.33
2018-06-19T16:24:19.488Z,35.46
2018-06-19T16:26:47.210Z,35.43
2018-06-19T16:29:14.878Z,36.11
2018-06-19T16:31:42.535Z,36.57
2018-06-19T16:34:10.190Z,35.91
2018-06-19T16:36:37.823Z,34.40
2018-06-19T16:39:06.832Z,35.13
2018-06-19T16:41:34.491Z,36.01
2018-06-19T16:44:02.163Z,37.21
2018-06-19T16:46:29.867Z,36.65
2018-06-19T16:48:57.519Z,37.30
2018-06-19T16:51:25.171Z,37.02
2018-06-19T16:53:52.844Z,37.05
2018-06-19T16:56:20.511Z,36.79
2018-06-19T16:58:48.318Z,37.49
2018-06-19T17:01:15.984Z,37.03
2018-06-19T17:03:43.625Z,36.59
2018-06-19T17:06:11.305Z,35.61
2018-06-19T17:08:38.938Z,35.75
2018-06-19T17:11:06.690Z,36.60
2018-06-19T17:13:34.389Z,36.53
2018-06-19T17:16:02.232Z,36.03
2018-06-19T17:18:29.910Z,36.31
2018-06-19T17:20:57.603Z,36.34
2018-06-19T17:23:25.266Z,36.45
2018-06-19T17:25:52.883Z,36.62
2018-06-19T17:28:20.570Z,37.61
2018-06-19T17:30:48.246Z,37.92
2018-06-19T17:33:15.886Z,38.09
2018-06-19T17:35:43.525Z,37.89
2018-06-19T17:38:11.203Z,38.51
2018-06-19T17:40:38.851Z,38.38
2018-06-19T17:43:06.496Z,39.19
2018-06-19T17:45:34.134Z,38.93
2018-06-19T17:48:01.805Z,38.97
2018-06-19T17:50:29.451Z,39.40
2018-06-19T17:52:57.156Z,39.28
2018-06-19T17:55:24.794Z,39.16
2018-06-19T17:57:52.473Z,39.85
2018-06-19T18:00:20.183Z,39.69
2018-06-19T18:02:47.826Z,39.31
2018-06-19T18:05:15.516Z,39.67
2018-06-19T18:07:43.179Z,40.62
2018-06-19T18:10:10.838Z,40.44
2018-06-19T18:12:38.495Z,41.20
2018-06-19T18:15:06.294Z,40.69
2018-06-19T18:17:33.941Z,41.06
2018-06-19T18:20:01.732Z,41.11
2018-06-19T18:22:29.446Z,41.17
2018-06-19T18:24:57.103Z,41.92
2018-06-19T18:27:24.810Z,41.63
2018-06-19T18:29:52.470Z,42.17
2018-06-19T18:32:20.174Z,42.51
2018-06-19T18:34:47.812Z,42.55
2018-06-19T18:37:16.500Z,42.04
2018-06-19T18:39:44.157Z,42.06
2018-06-19T18:42:12.006Z,42.43
2018-06-19T18:44:39.677Z,42.17
2018-06-19T18:47:07.300Z,42.09
2018-06-19T18:49:34.969Z,43.16
2018-06-19T18:52:02.643Z,43.39
2018-06-19T18:54:30.296Z,43.42
2018-06-19T18:56:57.929Z,44.24
2018-06-19T18:59:25.568Z,44.54
2018-06-19T19:01:53.187Z,44.73
2018-06-19T19:04:20.875Z,45.37
2018-06-19T19:06:48.516Z,45.21
2018-06-19T19:09:16.135Z,45.84
2018-06-19T19:11:43.844Z,45.72
2018-06-19T19:14:11.490Z,46.29
2018-06-19T19:16:44.788Z,46.26
2018-06-19T19:19:15.507Z,47.29
2018-06-19T19:21:43.224Z,46.98
2018-06-19T19:24:10.853Z,47.64
2018-06-19T19:26:44.359Z,47.16
2018-06-19T19:29:17.575Z,47.51
2018-06-19T19:31:45.247Z,48.50
2018-06-19T19:34:12.902Z,48.51
2018-06-19T19:36:46.334Z,48.68
2018-06-19T19:39:19.523Z,48.82
2018-06-19T19:41:47.197Z,48.50
2018-06-19T19:44:14.835Z,49.01
2018-06-19T19:46:48.259Z,49.85
2018-06-19T19:49:15.903Z,49.43
2018-06-19T19:51:43.563Z,50.16
2018-06-19T19:54:11.240Z,50.60
2018-06-19T19:57:44.573Z,51.42
2018-06-19T20:00:16.787Z,51.05
2018-06-19T20:02:44.455Z,51.27
2018-06-19T20:05:12.147Z,51.58
2018-06-19T20:07:40.146Z,51.23
2018-06-19T20:10:07.830Z,51.71
2018-06-19T20:12:35.504Z,52.33
2018-06-19T20:15:03.235Z,53.27
2018-06-19T20:17:30.960Z,53.34
2018-06-19T20:19:58.590Z,54.23
2018-06-19T20:22:26.249Z,53.77
2018-06-19T20:24:53.932Z,54.44
2018-06-19T20:27:21.622Z,54.96
2018-06-19T20:29:49.285Z,54.97
2018-06-19T20:32:16.990Z,54.85
2018-06-19T20:34:44.692Z,54.98
2018-06-19T20:37:12.341Z,55.10
2018-06-19T20:39:40.008Z,55.07
2018-06-19T20:42:07.681Z,55.45
2018-06-19T20:44:35.371Z,56.07
2018-06-19T20:47:03.087Z,56.60
2018-06-19T20:49:30.765Z,56.41
2018-06-19T20:51:58.430Z,57.40
2018-06-19T20:54:26.063Z,57.45
2018-06-19T20:56:53.740Z,57.53
2018-06-19T20:59:21.376Z,58.50
2018-06-19T21:01:49.157Z,58.18
2018-06-19T21:04:16.839Z,58.57
2018-06-19T21:06:44.584Z,58.93
2018-06-19T21:09:13.207Z,59.29
2018-06-19T21:11:40.882Z,58.65
2018-06-19T21:14:08.546Z,58.62
2018-06-19T21:16:36.642Z,58.26
2018-06-19T21:19:04.361Z,58.91
2018-06-19T21:21:32.050Z,57.96
2018-06-19T21:23:59.949Z,56.76
2018-06-19T21:26:27.623Z,57.35
2018-06-19T21:28:55.298Z,58.11
2018-06-19T21:31:23.038Z,58.19
2018-06-19T21:33:50.718Z,59.02
2018-06-19T21:36:18.367Z,59.23
2018-06-19T21:38:46.006Z,58.38
2018-06-19T21:41:13.686Z,57.76
2018-06-19T21:43:41.320Z,58.65
2018-06-19T21:46:08.984Z,58.95
2018-06-19T21:48:36.627Z,58.93
2018-06-19T21:51:04.331Z,59.84
2018-06-19T21:53:31.974Z,60.00
2018-06-19T21:55:59.640Z,59.96
2018-06-19T21:58:27.272Z,59.63
2018-06-19T22:00:54.968Z,61.03
2018-06-19T22:03:22.585Z,59.93
2018-06-19T22:05:50.223Z,60.52
2018-06-19T22:08:17.846Z,60.88
2018-06-19T22:10:45.498Z,59.78
2018-06-19T22:13:13.166Z,60.02
2018-06-19T22:15:40.817Z,61.09
2018-06-19T22:18:08.461Z,61.07
2018-06-19T22:20:36.122Z,60.83
2018-06-19T22:23:03.751Z,60.82
2018-06-19T22:25:31.426Z,61.04
2018-06-19T22:27:59.050Z,61.59
2018-06-19T22:30:26.715Z,61.81
2018-06-19T22:32:54.336Z,62.22
2018-06-19T22:35:21.970Z,62.18
2018-06-19T22:37:49.585Z,62.76
2018-06-19T22:40:17.253Z,62.96
2018-06-19T22:42:44.924Z,62.81
2018-06-19T22:45:12.579Z,62.59
2018-06-19T22:47:40.257Z,63.11
2018-06-19T22:50:07.905Z,63.06
2018-06-19T22:52:35.546Z,63.02
2018-06-19T22:55:03.205Z,63.46
2018-06-19T22:57:30.838Z,63.38
2018-06-19T22:59:58.469Z,63.14
2018-06-19T23:02:26.113Z,63.74
2018-06-19T23:04:53.830Z,64.13
2018-06-19T23:07:21.495Z,64.23
2018-06-19T23:09:50.246Z,64.28
2018-06-19T23:12:17.962Z,64.77
2018-06-19T23:14:45.626Z,66.41
2018-06-19T23:17:13.358Z,65.71
2018-06-19T23:19:41.042Z,65.33
2018-06-19T23:22:08.888Z,65.85
2018-06-19T23:24:36.600Z,65.72
2018-06-19T23:27:04.394Z,65.93
2018-06-19T23:29:32.112Z,66.28
2018-06-19T23:31:59.795Z,66.54
2018-06-19T23:34:27.694Z,66.43
2018-06-19T23:36:55.365Z,66.14
2018-06-19T23:39:23.041Z,66.10
2018-06-19T23:41:50.730Z,66.52
2018-06-19T23:44:18.398Z,66.91
2018-06-19T23:46:46.066Z,67.02
2018-06-19T23:49:13.763Z,66.32
2018-06-19T23:51:41.475Z,65.96
2018-06-19T23:54:09.149Z,65.93
2018-06-19T23:56:36.887Z,66.43
2018-06-19T23:59:04.662Z,66.64
